KFFL

Fairfield Municipal Airport

Fairfield, Iowa, USA
METAR KFFL 181615Z AUTO 22012KT 5SM HZ CLR 05/02 A2999 RMK AO2 PWINO
Observed Flight Rules
Dec-18 @ 16:15 UTC (20 minutes ago) Marginal Visual Flight Rules
Wind Visibility Clouds Conditions
220° at 12 knots 5 miles
  • Clear skies
  • Haze
Temperatures Readings
Current 5°C / 41°F
Dewpoint 2°C / 36°F
Humidity 81%
Altimeter 29.99" Hg
Pressure 1016 hPa
Elevation 244
METAR KFFL 181615Z AUTO 22012KT 5SM HZ CLR 05/02 A2999 RMK AO2 PWINO
Observed Flight Rules
Dec-18 @ 16:15 UTC
(20 minutes ago)
MVFR
Wind Visibility
220° at 12 knots 5 miles
Clouds
  • Clear skies
Conditions
  • Haze
Temperature Dewpoint
5°C / 41°F 2°C / 36°F
Humidity Altimeter Pressure
81% 29.99" Hg 1016 hPa